Portada
METAR-TAF:

METAR-TAF

Aeropuertos :

Tela, Honduras

latitud: 15-43N, longitud: 087-29W, altitud: 3 m

Observación

El informe se hizo hace 3 horas y 15 minutos, a las 06:00 UTC
Viento calma
Temperatura 28°C
Humedad 89%
Presión 1006 hPa
Visibilidad: 6000 m
Nubes dispersas a una altura de 2600 ft
Escasas nubes a una altura de 2800 ft, Cumulus congestus.

METAR: MHTE 180600Z 00000KT 6000 SCT026 FEW028TCU 28/26 Q1006 A2971

Hora: 03:15 (09:15 UTC)


TAF: falta

Observaciones y pronósticos meteorológicos de más de 4000 aeropuertos (mensajes METAR y TAF).

Los puntos amarillos y rojos representan las estaciones disponibles.

Ponga el ratón en el punto deseado para ver el nombre de la estación.

Haga clic para ver las observaciones y los pronósticos meteorológicos.

Para cambiar el mapa : haga clic en los botones verdes con una cruz de color negro para hacer un zoom, en el botón verde con un guión para alejar o en las flechas verdes para mapas adyacentes.


METAR-TAF: